Time;durP1;ratioP1;P1;durP2;ratioP2;P2;SDS_P1;SDS_P2;PMS_P1;PMS_P2;Temp;Humidity;BMP_temperature;BMP_pressure;BME280_temperature;BME280_humidity;BME280_pressure;Samples;Min_cycle;Max_cycle;Signal;HPM_P1;HPM_P2
2022/04/05 00:01:37;;;;;;;6.68;1.20;;;8.20;78.90;;;;;;4940395;29;20040;-76
2022/04/05 00:04:03;;;;;;;4.00;1.02;;;8.10;78.80;;;;;;4939296;29;20051;-76
2022/04/05 00:06:29;;;;;;;4.70;0.73;;;8.10;78.80;;;;;;4908334;29;20090;-77
2022/04/05 00:08:54;;;;;;;4.07;0.80;;;8.10;78.90;;;;;;4958460;29;20098;-76
2022/04/05 00:11:20;;;;;;;3.78;0.88;;;8.20;78.90;;;;;;4948502;29;20550;-76
2022/04/05 00:13:46;;;;;;;4.85;0.95;;;8.10;78.80;;;;;;4941414;29;20043;-76
2022/04/05 00:16:11;;;;;;;5.70;1.08;;;8.20;78.80;;;;;;4934512;29;20428;-77
2022/04/05 00:18:38;;;;;;;7.35;1.00;;;8.10;78.60;;;;;;4955905;29;20054;-77
2022/04/05 00:21:05;;;;;;;5.00;1.10;;;8.10;78.60;;;;;;4953471;29;20048;-76
2022/04/05 00:23:31;;;;;;;3.30;0.93;;;8.60;78.90;;;;;;4942843;29;20444;-76
2022/04/05 00:25:56;;;;;;;5.15;1.15;;;8.40;78.70;;;;;;4931774;29;20054;-76
2022/04/05 00:28:22;;;;;;;4.88;1.40;;;8.20;78.50;;;;;;4936266;29;20495;-77
2022/04/05 00:30:48;;;;;;;5.07;1.55;;;8.60;78.70;;;;;;4956746;29;20045;-76
2022/04/05 00:33:14;;;;;;;4.10;0.95;;;8.60;78.50;;;;;;4940794;29;20046;-76
2022/04/05 00:35:40;;;;;;;3.72;0.90;;;8.20;78.20;;;;;;4953282;29;20107;-76
2022/04/05 00:38:06;;;;;;;5.53;1.27;;;8.20;78.10;;;;;;4956119;29;20086;-76
2022/04/05 00:40:31;;;;;;;5.03;1.30;;;8.20;78.10;;;;;;4923293;29;20047;-76
2022/04/05 00:42:58;;;;;;;5.25;1.02;;;8.60;78.20;;;;;;4932161;29;20044;-76
2022/04/05 00:45:24;;;;;;;5.25;1.27;;;8.20;77.80;;;;;;4924003;29;20052;-76
2022/04/05 00:47:51;;;;;;;4.88;1.48;;;8.60;78.10;;;;;;4932393;29;20090;-75
2022/04/05 00:50:22;;;;;;;7.38;1.42;;;8.20;77.90;;;;;;4938108;29;20130;-75
2022/04/05 00:52:49;;;;;;;4.90;1.40;;;8.50;78.10;;;;;;4939828;29;20460;-76
2022/04/05 00:55:20;;;;;;;6.18;1.10;;;8.30;77.90;;;;;;4957082;29;20082;-76
2022/04/05 00:57:46;;;;;;;7.05;1.33;;;8.10;77.90;;;;;;4938150;29;20047;-76
2022/04/05 01:00:14;;;;;;;4.07;1.30;;;8.10;77.80;;;;;;4938942;29;20043;-76
2022/04/05 01:02:40;;;;;;;6.13;1.10;;;8.10;77.80;;;;;;4922432;29;20054;-76
2022/04/05 01:05:07;;;;;;;2.65;1.02;;;8.10;77.70;;;;;;4920235;29;20151;-76
2022/04/05 01:07:34;;;;;;;4.10;1.00;;;8.00;77.70;;;;;;4954094;29;20514;-76
2022/04/05 01:10:00;;;;;;;4.78;1.38;;;8.00;77.70;;;;;;4946271;29;20040;-76
2022/04/05 01:12:26;;;;;;;4.43;1.05;;;8.00;77.70;;;;;;4922003;29;20055;-75
2022/04/05 01:14:52;;;;;;;2.42;0.77;;;8.40;77.90;;;;;;4933703;29;20051;-75
2022/04/05 01:17:19;;;;;;;2.22;0.80;;;7.90;77.50;;;;;;4926127;29;20051;-75
2022/04/05 01:19:48;;;;;;;3.42;0.70;;;8.30;77.80;;;;;;4935620;29;20103;-76
2022/04/05 01:22:14;;;;;;;3.00;0.70;;;7.80;77.50;;;;;;4944355;29;20047;-76
2022/04/05 01:24:40;;;;;;;2.55;0.70;;;8.30;77.80;;;;;;4920137;29;20467;-76
2022/04/05 01:27:08;;;;;;;4.85;0.90;;;8.20;77.80;;;;;;4929346;29;20050;-76
2022/04/05 01:29:34;;;;;;;1.90;0.60;;;7.80;77.60;;;;;;4927967;29;20044;-76
2022/04/05 01:32:06;;;;;;;4.60;0.75;;;7.80;77.60;;;;;;4945884;29;20047;-76
2022/04/05 01:34:34;;;;;;;2.78;0.90;;;7.80;77.60;;;;;;4929775;29;20447;-76
2022/04/05 01:37:02;;;;;;;3.63;0.50;;;7.80;77.60;;;;;;4946548;29;20043;-76
2022/04/05 01:39:30;;;;;;;3.05;0.80;;;7.80;77.60;;;;;;4927576;29;20054;-76
2022/04/05 01:42:03;;;;;;;2.00;0.60;;;7.80;77.60;;;;;;4945584;29;20509;-76
2022/04/05 01:44:31;;;;;;;4.97;1.00;;;7.80;77.60;;;;;;4946726;29;20035;-76
2022/04/05 01:46:56;;;;;;;2.50;1.00;;;8.10;77.70;;;;;;4944957;29;20558;-76
2022/04/05 01:49:23;;;;;;;3.92;0.80;;;7.90;77.50;;;;;;4948626;29;20048;-76
2022/04/05 01:51:49;;;;;;;4.70;1.02;;;8.30;77.80;;;;;;4923480;29;20385;-75
2022/04/05 01:54:17;;;;;;;4.13;1.20;;;7.80;77.50;;;;;;4934948;29;20083;-75
2022/04/05 01:56:48;;;;;;;2.60;0.57;;;7.90;77.60;;;;;;4952939;29;20156;-76
2022/04/05 01:59:15;;;;;;;5.05;0.90;;;7.90;77.60;;;;;;4925556;29;20134;-75
2022/04/05 02:01:42;;;;;;;3.35;0.93;;;7.80;77.60;;;;;;4935115;29;20065;-75
2022/04/05 02:04:09;;;;;;;3.55;1.20;;;7.90;78.10;;;;;;4921331;29;20618;-75
2022/04/05 02:06:36;;;;;;;3.10;0.90;;;7.90;77.70;;;;;;4939177;29;20178;-74
2022/04/05 02:09:03;;;;;;;3.03;0.88;;;7.90;77.70;;;;;;4938068;29;20035;-76
2022/04/05 02:11:29;;;;;;;3.08;1.50;;;7.90;77.70;;;;;;4938201;29;20086;-75
2022/04/05 02:13:55;;;;;;;5.22;1.08;;;8.20;78.30;;;;;;4924316;29;20106;-76
2022/04/05 02:16:21;;;;;;;6.85;1.77;;;7.90;77.80;;;;;;4939462;29;20052;-75
2022/04/05 02:18:47;;;;;;;6.18;1.30;;;7.80;77.70;;;;;;4925678;29;20491;-76
2022/04/05 02:21:12;;;;;;;6.15;1.40;;;7.90;77.80;;;;;;4937062;29;20047;-76
2022/04/05 02:23:38;;;;;;;5.65;1.65;;;7.90;77.80;;;;;;4951559;29;20082;-76
2022/04/05 02:26:04;;;;;;;5.80;1.70;;;7.80;77.80;;;;;;4955092;29;20039;-76
2022/04/05 02:28:30;;;;;;;4.68;1.65;;;7.90;77.90;;;;;;4951625;29;20053;-75
2022/04/05 02:30:55;;;;;;;3.65;1.45;;;8.00;77.90;;;;;;4939589;29;20499;-75
2022/04/05 02:33:21;;;;;;;6.05;1.38;;;8.10;78.00;;;;;;4952460;29;20079;-76
2022/04/05 02:35:48;;;;;;;7.10;1.65;;;7.80;77.80;;;;;;4950673;29;20054;-75
2022/04/05 02:38:15;;;;;;;6.65;1.60;;;7.80;77.90;;;;;;4945421;29;20048;-76
2022/04/05 02:40:40;;;;;;;5.68;1.70;;;7.80;78.00;;;;;;4936687;29;20054;-76
2022/04/05 02:43:06;;;;;;;7.43;1.50;;;7.80;78.00;;;;;;4921023;29;20036;-76
2022/04/05 02:45:32;;;;;;;2.65;1.10;;;8.20;78.30;;;;;;4919352;29;20059;-75
2022/04/05 02:47:58;;;;;;;3.90;1.48;;;7.80;78.50;;;;;;4926285;29;20071;-76
2022/04/05 02:50:24;;;;;;;4.20;1.63;;;7.80;78.20;;;;;;4955506;29;20698;-75
2022/04/05 02:52:50;;;;;;;7.18;1.60;;;8.10;78.30;;;;;;4935080;29;20440;-75
2022/04/05 02:55:17;;;;;;;4.40;1.65;;;8.00;78.30;;;;;;4935508;29;20050;-76
2022/04/05 02:57:45;;;;;;;5.82;1.70;;;7.80;78.10;;;;;;4946884;29;20043;-76
2022/04/05 03:00:12;;;;;;;6.72;1.45;;;7.80;78.10;;;;;;4937569;29;20047;-77
2022/04/05 03:02:39;;;;;;;4.65;1.60;;;7.80;78.10;;;;;;4953064;29;20142;-75
2022/04/05 03:05:06;;;;;;;3.78;1.48;;;7.80;78.00;;;;;;4934156;29;20051;-75
2022/04/05 03:07:35;;;;;;;4.25;1.58;;;7.80;78.00;;;;;;4936543;29;20039;-75
2022/04/05 03:10:07;;;;;;;6.95;1.60;;;8.20;78.30;;;;;;4947754;29;20053;-76
2022/04/05 03:12:34;;;;;;;5.63;1.88;;;7.80;78.00;;;;;;4954218;29;20110;-75
2022/04/05 03:15:00;;;;;;;5.28;1.63;;;8.10;78.10;;;;;;4933609;29;20058;-76
2022/04/05 03:17:25;;;;;;;5.70;1.90;;;8.30;78.30;;;;;;4944902;29;20044;-76
2022/04/05 03:19:51;;;;;;;5.10;1.85;;;7.80;77.90;;;;;;4944064;29;20055;-75
2022/04/05 03:22:18;;;;;;;4.50;1.42;;;7.80;77.90;;;;;;4919424;29;20062;-75
2022/04/05 03:24:44;;;;;;;6.18;2.22;;;7.80;77.90;;;;;;4947663;29;20047;-75
2022/04/05 03:27:10;;;;;;;9.25;2.83;;;7.90;78.00;;;;;;4919358;29;20506;-75
2022/04/05 03:29:36;;;;;;;6.45;2.40;;;7.90;77.90;;;;;;4928554;29;20056;-75
2022/04/05 03:32:02;;;;;;;8.38;2.58;;;7.70;77.90;;;;;;4922983;29;20095;-75
2022/04/05 03:34:29;;;;;;;5.53;2.50;;;7.90;78.00;;;;;;4944389;29;20507;-76
2022/04/05 03:36:55;;;;;;;6.72;2.75;;;8.30;78.30;;;;;;4923731;29;20043;-75
2022/04/05 03:39:21;;;;;;;7.20;2.42;;;8.40;78.40;;;;;;4950424;29;20047;-75
2022/04/05 03:41:47;;;;;;;9.15;2.40;;;7.90;78.10;;;;;;4949390;29;20043;-75
2022/04/05 03:44:13;;;;;;;8.38;2.20;;;8.30;78.40;;;;;;4951680;29;20086;-75
2022/04/05 03:46:39;;;;;;;7.55;2.50;;;7.90;78.10;;;;;;4939622;29;20070;-74
2022/04/05 03:49:05;;;;;;;5.10;2.10;;;7.90;78.20;;;;;;4929229;29;20072;-75
2022/04/05 03:51:30;;;;;;;8.60;2.00;;;7.90;78.30;;;;;;4952164;29;20035;-75
2022/04/05 03:53:56;;;;;;;6.47;2.50;;;8.40;78.60;;;;;;4952876;29;20404;-75
2022/04/05 03:56:23;;;;;;;6.80;2.30;;;7.90;78.40;;;;;;4957634;29;20039;-75
2022/04/05 03:58:49;;;;;;;7.03;1.98;;;7.90;78.40;;;;;;4944195;29;20039;-74
2022/04/05 04:01:16;;;;;;;7.57;2.60;;;7.90;78.40;;;;;;4936581;29;20043;-75
2022/04/05 04:03:42;;;;;;;7.53;2.20;;;7.90;78.40;;;;;;4955411;29;20043;-75
2022/04/05 04:06:08;;;;;;;7.72;2.30;;;8.10;78.60;;;;;;4939607;29;20055;-75
2022/04/05 04:08:33;;;;;;;5.30;1.80;;;7.90;78.50;;;;;;4954191;29;20526;-75
2022/04/05 04:10:59;;;;;;;5.63;2.08;;;7.90;78.50;;;;;;4940401;29;20044;-75
2022/04/05 04:13:25;;;;;;;9.48;2.20;;;7.90;78.50;;;;;;4932421;29;20051;-74
2022/04/05 04:15:51;;;;;;;4.80;1.70;;;7.90;78.60;;;;;;4912151;29;20047;-74
2022/04/05 04:18:17;;;;;;;5.55;1.80;;;7.90;78.50;;;;;;4923639;29;20122;-75
2022/04/05 04:20:43;;;;;;;7.22;2.13;;;8.10;78.70;;;;;;4938913;29;20055;-75
2022/04/05 04:23:10;;;;;;;4.80;1.90;;;8.10;78.70;;;;;;4939317;29;20051;-75
2022/04/05 04:25:39;;;;;;;5.28;1.63;;;7.90;79.00;;;;;;4955978;29;20047;-75
2022/04/05 04:28:06;;;;;;;7.10;1.75;;;7.90;78.60;;;;;;4940787;29;20058;-75
2022/04/05 04:30:33;;;;;;;6.20;1.65;;;7.90;78.60;;;;;;4925857;29;20040;-75
2022/04/05 04:32:59;;;;;;;4.18;1.58;;;7.90;78.60;;;;;;4938750;29;20373;-75
2022/04/05 04:35:26;;;;;;;4.18;1.60;;;7.90;78.50;;;;;;4924426;29;20047;-76
2022/04/05 04:37:52;;;;;;;5.57;1.65;;;7.90;78.50;;;;;;4939006;29;20095;-76
2022/04/05 04:40:18;;;;;;;6.55;1.60;;;7.90;78.40;;;;;;4943307;28;20058;-75
2022/04/05 04:42:44;;;;;;;4.43;1.67;;;8.20;78.60;;;;;;4921596;29;20091;-75
2022/04/05 04:45:11;;;;;;;7.03;1.63;;;7.90;78.40;;;;;;4951273;29;20052;-75
2022/04/05 04:47:37;;;;;;;6.20;1.45;;;7.90;78.40;;;;;;4949675;29;20101;-75
2022/04/05 04:50:03;;;;;;;7.65;1.42;;;7.90;78.30;;;;;;4916007;29;20098;-75
2022/04/05 04:52:29;;;;;;;3.42;1.23;;;7.80;78.10;;;;;;4921580;29;20480;-75
2022/04/05 04:54:55;;;;;;;8.52;1.92;;;7.90;78.20;;;;;;4923888;29;20071;-76
2022/04/05 04:57:22;;;;;;;6.05;1.77;;;8.30;78.40;;;;;;4925576;29;20051;-76
2022/04/05 04:59:48;;;;;;;3.58;1.00;;;7.80;78.20;;;;;;4938790;29;20048;-76
2022/04/05 05:02:13;;;;;;;5.32;1.17;;;7.80;78.20;;;;;;4938224;29;20071;-75
2022/04/05 05:04:39;;;;;;;3.78;1.13;;;7.80;78.10;;;;;;4941207;29;20054;-76
2022/04/05 05:07:05;;;;;;;5.97;1.60;;;8.10;78.30;;;;;;4943519;29;20418;-76
2022/04/05 05:09:30;;;;;;;3.67;1.20;;;8.10;78.20;;;;;;4934696;29;20095;-76
2022/04/05 05:11:56;;;;;;;3.45;0.80;;;8.20;78.20;;;;;;4921274;29;20050;-76
2022/04/05 05:14:22;;;;;;;8.82;2.35;;;7.90;78.00;;;;;;4949404;29;20043;-76
2022/04/05 05:16:48;;;;;;;2.35;0.95;;;7.90;77.90;;;;;;4954295;29;20118;-76
2022/04/05 05:19:13;;;;;;;2.60;1.02;;;7.90;77.80;;;;;;4931530;29;20063;-76
2022/04/05 05:21:39;;;;;;;7.55;1.38;;;8.20;78.00;;;;;;4921744;29;20099;-76
2022/04/05 05:24:05;;;;;;;5.43;1.10;;;7.90;77.80;;;;;;4939896;29;20047;-76
2022/04/05 05:26:31;;;;;;;4.65;1.42;;;7.90;77.70;;;;;;4942830;29;20044;-76
2022/04/05 05:28:57;;;;;;;4.40;1.05;;;7.90;77.70;;;;;;4923529;29;20105;-76
2022/04/05 05:31:22;;;;;;;2.97;1.00;;;8.30;77.90;;;;;;4949520;29;20491;-76
2022/04/05 05:33:48;;;;;;;5.07;1.00;;;7.90;77.60;;;;;;4956221;29;20054;-76
2022/04/05 05:36:14;;;;;;;3.10;0.70;;;8.00;77.50;;;;;;4923094;29;20051;-76
2022/04/05 05:38:39;;;;;;;4.43;1.40;;;8.20;77.60;;;;;;4956963;29;20403;-76
2022/04/05 05:41:05;;;;;;;5.38;0.85;;;8.00;77.40;;;;;;4927582;29;20133;-75
2022/04/05 05:43:31;;;;;;;3.50;1.17;;;8.10;77.40;;;;;;4939627;29;20039;-76
2022/04/05 05:45:58;;;;;;;2.35;0.80;;;8.10;77.30;;;;;;4955947;29;20039;-75
2022/04/05 05:48:23;;;;;;;3.78;0.68;;;8.00;77.20;;;;;;4925428;29;20487;-75
2022/04/05 05:50:51;;;;;;;1.50;0.65;;;8.50;77.40;;;;;;4954196;28;20043;-76
2022/04/05 05:53:17;;;;;;;3.70;1.05;;;8.00;77.10;;;;;;4956675;29;20054;-77
2022/04/05 05:55:42;;;;;;;3.67;0.88;;;8.00;77.00;;;;;;4937942;29;20176;-76
2022/04/05 05:58:08;;;;;;;5.35;0.80;;;8.00;76.90;;;;;;4934922;29;20052;-76
2022/04/05 06:00:34;;;;;;;3.33;0.80;;;8.10;76.90;;;;;;4928291;29;20082;-76
2022/04/05 06:03:03;;;;;;;5.18;1.33;;;8.40;77.00;;;;;;4943751;29;20071;-76
2022/04/05 06:05:30;;;;;;;3.95;1.13;;;8.10;76.80;;;;;;4947077;29;20092;-76
2022/04/05 06:07:56;;;;;;;3.15;0.70;;;8.10;76.80;;;;;;4914215;29;20062;-76
2022/04/05 06:10:23;;;;;;;2.17;0.70;;;8.20;76.80;;;;;;4952808;29;20050;-76
2022/04/05 06:12:49;;;;;;;4.07;0.60;;;8.10;76.80;;;;;;4952242;29;20053;-76
2022/04/05 06:15:17;;;;;;;5.60;1.63;;;8.10;76.70;;;;;;4946573;29;20050;-76
2022/04/05 06:17:48;;;;;;;3.45;0.70;;;8.40;76.90;;;;;;4950706;29;20050;-75
2022/04/05 06:20:16;;;;;;;2.50;0.85;;;8.10;76.80;;;;;;4940607;29;20066;-75
2022/04/05 06:22:46;;;;;;;5.53;0.70;;;8.10;76.70;;;;;;4948512;29;20119;-75
2022/04/05 06:25:14;;;;;;;4.22;0.80;;;8.50;76.90;;;;;;4928432;29;20078;-75
2022/04/05 06:27:40;;;;;;;2.95;0.60;;;8.40;76.80;;;;;;4938113;29;20474;-75
2022/04/05 06:30:07;;;;;;;3.05;0.70;;;8.20;76.70;;;;;;4938668;29;20086;-75
2022/04/05 06:32:33;;;;;;;2.17;1.00;;;8.20;76.70;;;;;;4948702;29;20488;-75
2022/04/05 06:34:59;;;;;;;3.08;0.98;;;8.60;76.80;;;;;;4938237;29;20032;-75
2022/04/05 06:37:25;;;;;;;2.65;0.60;;;8.20;76.50;;;;;;4933190;29;20047;-75
2022/04/05 06:39:50;;;;;;;2.97;0.75;;;8.20;76.60;;;;;;4955694;29;20094;-76
2022/04/05 06:42:16;;;;;;;3.58;0.73;;;8.30;76.70;;;;;;4952140;29;20422;-75
2022/04/05 06:44:42;;;;;;;8.30;1.25;;;8.50;76.70;;;;;;4936565;29;20400;-75
2022/04/05 06:47:11;;;;;;;2.28;0.52;;;8.40;76.60;;;;;;4946182;29;20480;-75
2022/04/05 06:49:37;;;;;;;1.30;0.60;;;8.30;76.50;;;;;;4938351;29;20047;-75
2022/04/05 06:52:03;;;;;;;2.05;0.60;;;8.40;76.40;;;;;;4936644;29;20126;-76
2022/04/05 06:54:29;;;;;;;1.67;0.73;;;8.40;76.30;;;;;;4955496;29;20055;-76
2022/04/05 06:56:55;;;;;;;2.20;0.60;;;8.40;76.10;;;;;;4931272;29;20040;-76
2022/04/05 06:59:21;;;;;;;3.03;0.57;;;8.40;76.00;;;;;;4919186;29;20047;-76
2022/04/05 07:01:47;;;;;;;2.35;0.75;;;8.40;75.90;;;;;;4920600;29;20083;-76
2022/04/05 07:04:12;;;;;;;3.10;0.65;;;8.50;75.90;;;;;;4938399;29;20054;-76
2022/04/05 07:06:38;;;;;;;2.67;0.63;;;8.70;76.00;;;;;;4943312;29;20550;-75
2022/04/05 07:09:05;;;;;;;1.45;0.60;;;8.60;75.90;;;;;;4959507;29;20118;-76
2022/04/05 07:11:31;;;;;;;1.77;0.55;;;8.60;75.90;;;;;;4958688;29;20102;-76
2022/04/05 07:13:57;;;;;;;1.20;0.60;;;8.50;75.80;;;;;;4926451;29;20130;-76
2022/04/05 07:16:23;;;;;;;1.25;0.55;;;8.90;76.00;;;;;;4954485;29;20130;-76
2022/04/05 07:18:49;;;;;;;2.70;0.80;;;9.00;76.00;;;;;;4925962;29;20039;-77
2022/04/05 07:21:15;;;;;;;3.45;0.80;;;8.90;76.40;;;;;;4959111;29;20051;-77
2022/04/05 07:23:44;;;;;;;1.80;0.55;;;8.60;75.90;;;;;;4940364;29;20079;-76
2022/04/05 07:26:11;;;;;;;2.65;0.65;;;8.60;76.00;;;;;;4955695;29;20176;-77
2022/04/05 07:28:36;;;;;;;2.75;0.85;;;8.70;76.10;;;;;;4942587;29;20039;-77
2022/04/05 07:31:03;;;;;;;3.58;0.90;;;9.00;76.30;;;;;;4923054;29;20452;-76
2022/04/05 07:33:29;;;;;;;2.40;0.90;;;8.90;76.30;;;;;;4940657;29;20051;-76
2022/04/05 07:35:54;;;;;;;3.67;0.65;;;8.80;76.20;;;;;;4922990;29;20062;-76
2022/04/05 07:38:20;;;;;;;2.55;0.60;;;8.80;76.10;;;;;;4953183;29;20483;-76
2022/04/05 07:40:49;;;;;;;2.97;1.10;;;8.60;76.00;;;;;;4958712;29;20054;-75
2022/04/05 07:43:26;;;;;;;1.80;0.70;;;9.10;76.30;;;;;;4939459;29;20467;-75
2022/04/05 07:45:53;;;;;;;1.88;0.60;;;9.20;76.40;;;;;;4941903;29;20075;-75
2022/04/05 07:48:20;;;;;;;2.72;0.65;;;8.90;76.20;;;;;;4940995;29;20047;-75
2022/04/05 07:50:47;;;;;;;3.05;0.77;;;9.30;76.40;;;;;;4959132;29;20051;-75
2022/04/05 07:53:14;;;;;;;2.45;0.80;;;9.00;76.10;;;;;;4957056;29;20510;-75
2022/04/05 07:55:40;;;;;;;2.25;0.60;;;9.60;76.40;;;;;;4959043;29;20075;-75
2022/04/05 07:58:06;;;;;;;0.68;0.30;;;9.00;76.00;;;;;;4932377;29;20075;-75
2022/04/05 08:00:32;;;;;;;2.25;0.60;;;9.10;75.90;;;;;;4939654;29;20578;-76
2022/04/05 08:02:57;;;;;;;1.88;0.55;;;9.50;76.00;;;;;;4908685;29;20055;-75
2022/04/05 08:05:27;;;;;;;2.20;0.57;;;9.20;75.80;;;;;;4921608;29;20159;-76
2022/04/05 08:07:54;;;;;;;1.63;0.60;;;9.30;75.90;;;;;;4939972;29;20083;-76
2022/04/05 08:10:20;;;;;;;0.73;0.43;;;9.20;75.90;;;;;;4922663;29;20491;-76
2022/04/05 08:12:47;;;;;;;1.75;0.50;;;9.20;75.80;;;;;;4923005;29;20431;-76
2022/04/05 08:15:15;;;;;;;1.23;0.60;;;9.60;76.00;;;;;;4922849;29;20055;-76
2022/04/05 08:17:41;;;;;;;1.05;0.47;;;9.40;75.90;;;;;;4936876;29;20043;-75
2022/04/05 08:20:08;;;;;;;1.13;0.50;;;9.40;75.80;;;;;;4922118;29;20099;-76
2022/04/05 08:22:34;;;;;;;1.33;0.40;;;9.40;75.80;;;;;;4949732;29;20110;-75
2022/04/05 08:25:00;;;;;;;1.75;0.40;;;9.50;75.90;;;;;;4922025;29;20055;-76
2022/04/05 08:27:25;;;;;;;1.25;0.55;;;9.50;75.90;;;;;;4939116;29;20053;-75
2022/04/05 08:29:51;;;;;;;1.15;0.50;;;9.50;75.90;;;;;;4953259;29;20373;-75
2022/04/05 08:32:17;;;;;;;1.42;0.47;;;9.60;76.00;;;;;;4943708;29;20440;-75
2022/04/05 08:34:45;;;;;;;0.95;0.45;;;9.60;76.00;;;;;;4954375;29;20089;-75
2022/04/05 08:37:11;;;;;;;1.00;0.20;;;9.60;76.00;;;;;;4921904;29;20044;-76
2022/04/05 08:39:38;;;;;;;0.65;0.38;;;9.60;76.00;;;;;;4953197;29;20109;-75
2022/04/05 08:42:05;;;;;;;0.70;0.30;;;9.70;75.90;;;;;;4957213;29;20126;-75
2022/04/05 08:44:31;;;;;;;1.65;0.60;;;9.80;75.80;;;;;;4943615;29;20047;-76
2022/04/05 08:47:00;;;;;;;0.60;0.40;;;10.10;75.90;;;;;;4921403;29;20504;-75
2022/04/05 08:49:28;;;;;;;0.65;0.40;;;9.80;75.60;;;;;;4951109;29;20061;-75
2022/04/05 08:51:54;;;;;;;0.90;0.47;;;10.00;75.70;;;;;;4956358;29;20047;-76
2022/04/05 08:54:19;;;;;;;0.70;0.60;;;10.10;75.80;;;;;;4950371;29;20051;-76
2022/04/05 08:56:47;;;;;;;0.30;0.20;;;10.30;75.90;;;;;;4940209;29;20055;-76
2022/04/05 08:59:13;;;;;;;0.40;0.40;;;10.00;75.70;;;;;;4930520;29;20059;-76
2022/04/05 09:01:40;;;;;;;0.80;0.50;;;10.00;75.50;;;;;;4925362;29;20062;-76
2022/04/05 09:04:06;;;;;;;1.35;0.70;;;10.00;75.40;;;;;;4929981;29;20122;-76
2022/04/05 09:06:35;;;;;;;0.95;0.40;;;10.40;75.60;;;;;;4948385;29;20446;-76
2022/04/05 09:09:12;;;;;;;0.55;0.40;;;10.00;75.40;;;;;;4950313;29;20122;-76
2022/04/05 09:11:49;;;;;;;1.13;0.70;;;10.10;75.50;;;;;;4921070;29;20059;-75
2022/04/05 09:14:26;;;;;;;1.90;1.05;;;10.60;75.70;;;;;;4924411;29;20051;-75
2022/04/05 09:17:10;;;;;;;2.00;1.42;;;10.10;75.40;;;;;;4957117;29;20055;-76
2022/04/05 09:19:37;;;;;;;2.30;1.30;;;10.10;75.20;;;;;;4920220;29;20092;-76
2022/04/05 09:22:03;;;;;;;2.72;1.23;;;10.20;75.30;;;;;;4937940;29;20047;-76
2022/04/05 09:24:33;;;;;;;1.60;1.15;;;10.20;75.20;;;;;;4932292;29;20048;-75
2022/04/05 09:26:59;;;;;;;1.30;1.00;;;10.30;75.60;;;;;;4936007;29;20127;-76
2022/04/05 09:29:41;;;;;;;1.70;1.10;;;10.30;75.20;;;;;;4937571;29;20103;-75
2022/04/05 09:32:07;;;;;;;1.52;0.70;;;10.30;75.30;;;;;;4936155;29;20087;-76
2022/04/05 09:34:49;;;;;;;1.48;0.93;;;10.30;75.30;;;;;;4934493;29;20054;-76
2022/04/05 09:37:15;;;;;;;1.98;0.80;;;10.40;75.20;;;;;;4935922;29;20448;-76
2022/04/05 09:39:41;;;;;;;1.58;0.90;;;10.40;75.10;;;;;;4935848;29;20051;-76
2022/04/05 09:42:09;;;;;;;2.15;1.20;;;10.40;74.90;;;;;;4936479;29;20126;-76
2022/04/05 09:44:40;;;;;;;2.50;1.45;;;10.50;74.90;;;;;;4934060;29;20079;-76
2022/04/05 09:47:08;;;;;;;2.67;1.58;;;10.50;75.10;;;;;;4935784;29;20036;-76
2022/04/05 09:49:38;;;;;;;3.20;1.92;;;10.50;75.30;;;;;;4936934;29;20491;-76
2022/04/05 09:52:28;;;;;;;2.47;1.83;;;10.60;75.20;;;;;;4937202;29;20043;-76
2022/04/05 09:54:56;;;;;;;3.97;2.05;;;10.60;75.00;;;;;;4914540;29;20042;-76
2022/04/05 09:57:34;;;;;;;3.42;1.73;;;10.60;75.00;;;;;;4919368;29;20044;-77
2022/04/05 10:00:18;;;;;;;2.78;1.98;;;10.70;74.90;;;;;;4918613;29;20035;-74
2022/04/05 10:03:02;;;;;;;3.80;2.25;;;10.70;74.70;;;;;;4917983;29;20052;-75
2022/04/05 10:05:33;;;;;;;3.30;2.22;;;10.70;74.70;;;;;;4902606;29;20076;-75
2022/04/05 10:07:59;;;;;;;3.33;1.80;;;10.70;74.90;;;;;;4919059;29;20028;-75
2022/04/05 10:10:26;;;;;;;2.97;2.10;;;10.80;75.00;;;;;;4920511;29;20118;-75
2022/04/05 10:12:52;;;;;;;3.78;2.25;;;10.80;74.70;;;;;;4935438;29;20052;-76
2022/04/05 10:15:21;;;;;;;4.00;2.80;;;11.10;74.80;;;;;;4912636;29;20055;-76
2022/04/05 10:17:49;;;;;;;5.18;3.20;;;10.80;74.50;;;;;;4917617;29;20070;-75
2022/04/05 10:20:17;;;;;;;3.10;2.30;;;10.90;74.90;;;;;;4935580;29;20052;-76
2022/04/05 10:22:44;;;;;;;3.55;2.40;;;10.90;74.50;;;;;;4919779;29;20094;-76
2022/04/05 10:25:10;;;;;;;3.92;2.72;;;11.40;74.80;;;;;;4934874;29;20420;-75
2022/04/05 10:27:37;;;;;;;3.95;3.20;;;11.00;74.50;;;;;;4935585;29;20048;-76
2022/04/05 10:30:10;;;;;;;4.25;3.00;;;10.90;74.60;;;;;;4934699;29;20103;-77
2022/04/05 10:33:00;;;;;;;4.57;2.97;;;11.00;74.90;;;;;;4936197;29;20099;-76
2022/04/05 10:35:29;;;;;;;4.47;3.33;;;11.00;75.10;;;;;;4913669;29;20052;-76
2022/04/05 10:38:18;;;;;;;5.28;3.20;;;11.10;75.30;;;;;;4917409;29;20101;-76
2022/04/05 10:41:12;;;;;;;4.15;3.20;;;11.30;75.60;;;;;;4925153;29;20051;-76
2022/04/05 10:43:39;;;;;;;4.80;3.83;;;11.00;75.40;;;;;;4936491;29;20051;-76
2022/04/05 10:46:08;;;;;;;4.88;3.47;;;11.10;75.70;;;;;;4927013;29;20036;-77
2022/04/05 10:48:34;;;;;;;4.95;3.35;;;11.00;75.80;;;;;;4900563;29;20108;-77
2022/04/05 10:51:00;;;;;;;5.25;3.40;;;11.60;75.90;;;;;;4926246;29;20039;-75
2022/04/05 10:56:29;;;;;;;4.28;3.30;;;11.10;75.70;;;;;;4933374;29;20062;-75
2022/04/05 10:59:05;;;;;;;6.38;3.80;;;11.30;76.00;;;;;;4935899;29;20044;-75
2022/04/05 11:01:45;;;;;;;5.38;3.97;;;11.10;75.90;;;;;;4932196;29;20059;-75
2022/04/05 11:04:20;;;;;;;4.82;3.47;;;11.50;76.10;;;;;;4934800;29;20499;-75
2022/04/05 11:07:01;;;;;;;4.07;3.33;;;11.20;76.20;;;;;;4905517;29;20439;-75
2022/04/05 11:09:48;;;;;;;4.85;3.75;;;11.40;76.20;;;;;;4927458;29;20449;-75
2022/04/05 11:12:33;;;;;;;6.13;4.93;;;11.60;76.40;;;;;;4916662;29;20134;-75
2022/04/05 11:15:04;;;;;;;5.25;3.83;;;11.30;76.40;;;;;;4923600;29;20131;-75
2022/04/05 11:17:32;;;;;;;6.20;4.20;;;11.40;76.80;;;;;;4901373;29;20453;-75
2022/04/05 11:19:59;;;;;;;7.38;4.32;;;11.60;76.70;;;;;;4899749;29;20055;-75
2022/04/05 11:22:28;;;;;;;5.90;5.20;;;11.40;76.20;;;;;;4930232;29;20052;-75
2022/04/05 11:25:13;;;;;;;7.03;4.78;;;11.50;76.00;;;;;;4936024;29;20048;-76
2022/04/05 11:27:49;;;;;;;;;;;11.50;76.10;;;;;;4934527;29;20055;-76
2022/04/05 11:30:26;;;;;;;7.03;4.78;;;11.50;75.80;;;;;;4936029;29;19929;-76
2022/04/05 11:33:16;;;;;;;6.95;4.72;;;11.50;76.00;;;;;;4933457;29;20048;-77
2022/04/05 11:35:50;;;;;;;6.15;4.60;;;11.60;75.90;;;;;;4917400;29;20082;-76
2022/04/05 11:38:19;;;;;;;5.88;4.38;;;11.60;76.00;;;;;;4935434;29;20099;-76
2022/04/05 11:41:08;;;;;;;5.88;4.00;;;11.80;76.10;;;;;;4923275;29;20496;-76
2022/04/05 11:43:42;;;;;;;8.00;4.07;;;11.70;75.90;;;;;;4933638;29;20059;-76
2022/04/05 11:46:20;;;;;;;8.73;4.00;;;11.70;75.80;;;;;;4934130;29;20070;-77
2022/04/05 11:48:55;;;;;;;11.10;4.50;;;11.70;75.80;;;;;;4903015;29;20052;-80
2022/04/05 11:51:27;;;;;;;6.88;4.20;;;11.70;75.60;;;;;;4936827;29;20520;-80
2022/04/05 11:54:11;;;;;;;11.10;4.68;;;11.70;75.50;;;;;;4924320;29;20508;-79
2022/04/05 11:56:41;;;;;;;7.32;4.32;;;11.70;75.60;;;;;;4937593;29;20036;-79
2022/04/05 11:59:09;;;;;;;10.25;4.85;;;11.80;75.60;;;;;;4938210;29;20091;-80
2022/04/05 12:01:40;;;;;;;9.80;4.95;;;11.80;75.50;;;;;;4902786;29;20459;-80
2022/04/05 12:04:08;;;;;;;8.20;4.07;;;11.80;75.50;;;;;;4902794;29;20090;-77
2022/04/05 12:06:38;;;;;;;11.48;5.05;;;11.80;75.60;;;;;;4938390;29;20396;-77
2022/04/05 12:09:07;;;;;;;9.07;4.72;;;11.80;75.80;;;;;;4939116;29;20071;-78
2022/04/05 12:11:36;;;;;;;8.48;4.13;;;11.90;76.20;;;;;;4936408;29;20056;-78
2022/04/05 12:14:10;;;;;;;8.85;4.00;;;12.20;76.50;;;;;;4920556;29;20413;-78
2022/04/05 12:16:43;;;;;;;5.50;2.97;;;12.10;76.30;;;;;;4923023;29;20048;-77
2022/04/05 12:19:09;;;;;;;5.88;2.65;;;12.30;76.20;;;;;;4922550;29;20039;-78
2022/04/05 12:21:35;;;;;;;6.22;3.15;;;12.00;76.20;;;;;;4929746;29;20106;-78
2022/04/05 12:24:00;;;;;;;7.20;3.17;;;12.30;76.00;;;;;;4937431;29;20130;-78
2022/04/05 12:26:31;;;;;;;8.70;3.83;;;11.80;75.80;;;;;;4921212;29;20071;-79
2022/04/05 12:28:58;;;;;;;7.97;3.88;;;12.00;76.30;;;;;;4920775;29;20137;-79
2022/04/05 12:31:31;;;;;;;11.32;4.88;;;12.00;75.80;;;;;;4921724;29;20059;-80
2022/04/05 12:34:13;;;;;;;9.88;5.85;;;11.90;75.60;;;;;;4905135;29;20063;-80
2022/04/05 12:36:40;;;;;;;12.05;5.80;;;11.90;75.50;;;;;;4918386;29;20040;-79
2022/04/05 12:39:18;;;;;;;14.00;6.10;;;11.90;75.60;;;;;;4918309;29;20052;-78
2022/04/05 12:41:44;;;;;;;16.85;7.00;;;12.30;76.00;;;;;;4937602;29;20047;-79
2022/04/05 12:44:15;;;;;;;15.02;6.70;;;12.00;75.80;;;;;;4936909;29;20051;-80
2022/04/05 12:46:48;;;;;;;14.52;6.30;;;11.80;75.80;;;;;;4937125;29;20052;-78
2022/04/05 12:49:20;;;;;;;12.98;6.25;;;11.80;75.90;;;;;;4936153;29;20106;-77
2022/04/05 12:51:48;;;;;;;10.52;5.70;;;12.00;76.10;;;;;;4932040;29;20058;-79
2022/04/05 12:54:35;;;;;;;13.65;6.40;;;11.80;76.00;;;;;;4922150;29;20056;-80
2022/04/05 12:57:15;;;;;;;16.50;6.53;;;11.80;76.00;;;;;;4931211;29;20092;-79
2022/04/05 12:59:42;;;;;;;13.38;6.53;;;11.90;76.10;;;;;;4927601;29;20051;-80
2022/04/05 13:02:18;;;;;;;15.15;7.47;;;11.70;76.00;;;;;;4921146;29;20039;-79